Time;durP1;ratioP1;P1;durP2;ratioP2;P2;SDS_P1;SDS_P2;PMS_P1;PMS_P2;Temp;Humidity;BMP_temperature;BMP_pressure;BME280_temperature;BME280_humidity;BME280_pressure;Samples;Min_cycle;Max_cycle;Signal;HPM_P1;HPM_P2
2021/04/04 00:00:41;;;;;;;1.52;0.30;;;21.60;37.20;;;;;;5027376;28;20021;-79
2021/04/04 00:03:07;;;;;;;0.98;0.20;;;21.60;37.30;;;;;;5012234;28;20028;-79
2021/04/04 00:05:34;;;;;;;1.20;0.20;;;21.60;37.20;;;;;;5029301;28;20152;-79
2021/04/04 00:08:18;;;;;;;1.63;0.50;;;21.60;37.20;;;;;;5045648;28;20032;-79
2021/04/04 00:10:44;;;;;;;1.10;0.20;;;21.60;37.30;;;;;;5030514;28;20041;-79
2021/04/04 00:13:10;;;;;;;1.33;0.38;;;21.50;37.20;;;;;;5032372;28;20079;-79
2021/04/04 00:15:36;;;;;;;1.85;0.32;;;21.50;37.20;;;;;;5032871;28;20025;-79
2021/04/04 00:18:03;;;;;;;0.95;0.25;;;21.60;37.30;;;;;;5010280;28;20496;-79
2021/04/04 00:20:30;;;;;;;1.17;0.30;;;21.60;37.20;;;;;;5029550;28;20025;-81
2021/04/04 00:22:56;;;;;;;1.40;0.30;;;21.50;37.20;;;;;;5032134;28;20032;-78
2021/04/04 00:25:22;;;;;;;1.05;0.28;;;21.50;37.10;;;;;;5025635;28;20112;-78
2021/04/04 00:28:06;;;;;;;2.45;0.35;;;21.50;37.20;;;;;;5045574;28;20036;-79
2021/04/04 00:30:33;;;;;;;3.50;0.20;;;21.50;37.20;;;;;;5027948;28;20033;-78
2021/04/04 00:32:59;;;;;;;0.55;0.20;;;21.50;37.10;;;;;;5010704;28;20026;-79
2021/04/04 00:35:25;;;;;;;1.10;0.25;;;21.50;37.20;;;;;;5030232;28;20079;-79
2021/04/04 00:38:10;;;;;;;1.45;0.30;;;21.50;37.20;;;;;;5028774;28;20031;-78
2021/04/04 00:40:38;;;;;;;2.88;0.30;;;21.50;37.20;;;;;;5018289;28;20032;-78
2021/04/04 00:43:23;;;;;;;1.85;0.40;;;21.50;37.10;;;;;;5032613;28;20128;-78
2021/04/04 00:45:49;;;;;;;1.60;0.20;;;21.50;37.20;;;;;;5032299;28;20088;-78
2021/04/04 00:48:15;;;;;;;1.80;0.30;;;21.40;37.10;;;;;;5017175;28;20047;-78
2021/04/04 00:50:44;;;;;;;1.10;0.30;;;21.50;37.20;;;;;;5011211;28;20024;-77
2021/04/04 00:53:10;;;;;;;2.25;0.73;;;21.50;37.10;;;;;;5040582;28;20076;-80
2021/04/04 00:55:37;;;;;;;1.60;0.40;;;21.50;37.10;;;;;;5010884;28;20124;-78
2021/04/04 00:58:04;;;;;;;1.30;0.30;;;21.50;37.10;;;;;;5025089;28;20021;-78
2021/04/04 01:00:33;;;;;;;0.93;0.20;;;21.40;37.10;;;;;;5046587;28;20484;-78
2021/04/04 01:03:17;;;;;;;0.90;0.30;;;21.40;37.10;;;;;;5037026;28;20130;-78
2021/04/04 01:05:49;;;;;;;3.72;0.40;;;21.40;37.10;;;;;;5035696;28;20025;-77
2021/04/04 01:08:15;;;;;;;;;;;21.40;37.10;;;;;;5044385;28;20013;-78
2021/04/04 01:10:44;;;;;;;1.85;0.45;;;21.40;37.10;;;;;;5045041;28;19936;-78
2021/04/04 01:13:28;;;;;;;1.40;0.20;;;21.40;37.60;;;;;;5022853;28;20036;-79
2021/04/04 01:16:00;;;;;;;2.85;0.35;;;21.40;37.20;;;;;;5027642;28;20026;-79
2021/04/04 01:18:41;;;;;;;1.30;0.28;;;21.40;37.10;;;;;;5025964;28;20037;-78
2021/04/04 01:21:35;;;;;;;1.23;0.20;;;21.40;37.20;;;;;;5043587;28;20048;-79
2021/04/04 01:24:12;;;;;;;1.38;0.50;;;21.40;37.10;;;;;;5058331;28;20033;-78
2021/04/04 01:26:50;;;;;;;0.80;0.40;;;21.40;37.20;;;;;;5043103;28;20025;-78
2021/04/04 01:29:18;;;;;;;2.10;0.20;;;21.40;37.20;;;;;;5026665;28;20017;-78
2021/04/04 01:31:45;;;;;;;1.40;0.30;;;21.40;37.10;;;;;;5025852;28;20036;-78
2021/04/04 01:34:13;;;;;;;1.80;0.68;;;21.40;37.20;;;;;;5045427;28;20077;-78
2021/04/04 01:36:40;;;;;;;0.80;0.30;;;21.40;37.10;;;;;;5024738;28;20025;-78
2021/04/04 01:39:09;;;;;;;3.47;0.40;;;21.40;37.10;;;;;;5007880;28;20120;-78
2021/04/04 01:41:43;;;;;;;1.98;0.40;;;21.40;37.10;;;;;;5025341;28;20077;-78
2021/04/04 01:44:12;;;;;;;1.35;0.30;;;21.40;37.10;;;;;;5042066;28;20068;-78
2021/04/04 01:46:40;;;;;;;1.63;0.32;;;21.40;37.10;;;;;;5025061;28;20392;-78
2021/04/04 01:49:06;;;;;;;1.90;0.30;;;21.40;37.10;;;;;;5043983;28;20049;-77
2021/04/04 01:51:34;;;;;;;0.77;0.28;;;21.40;37.10;;;;;;5022848;28;20032;-78
2021/04/04 01:54:03;;;;;;;1.35;0.47;;;21.40;37.10;;;;;;5010166;28;20041;-78
2021/04/04 01:56:30;;;;;;;2.85;0.35;;;21.40;37.00;;;;;;5007760;28;20116;-78
2021/04/04 01:58:57;;;;;;;1.20;0.40;;;21.30;37.10;;;;;;5024279;28;20354;-79
2021/04/04 02:01:23;;;;;;;0.90;0.30;;;21.30;37.00;;;;;;5026112;28;20013;-78
2021/04/04 02:03:50;;;;;;;2.08;0.25;;;21.30;37.10;;;;;;5024751;28;20468;-78
2021/04/04 02:06:17;;;;;;;1.90;0.47;;;21.30;37.00;;;;;;5024731;28;20478;-78
2021/04/04 02:08:44;;;;;;;1.52;0.50;;;21.30;37.10;;;;;;5043990;28;20033;-78
2021/04/04 02:11:19;;;;;;;1.75;0.20;;;21.30;37.00;;;;;;5013998;28;20132;-78
2021/04/04 02:13:47;;;;;;;0.80;0.30;;;21.30;37.10;;;;;;5030653;28;20056;-78
2021/04/04 02:16:14;;;;;;;1.95;0.35;;;21.30;37.10;;;;;;5029622;28;20025;-78
2021/04/04 02:18:44;;;;;;;1.75;0.30;;;21.30;37.10;;;;;;5044998;28;20130;-79
2021/04/04 02:21:10;;;;;;;0.68;0.15;;;21.30;37.10;;;;;;5028125;28;20048;-78
2021/04/04 02:23:37;;;;;;;0.98;0.30;;;21.30;37.10;;;;;;5049086;28;20387;-78
2021/04/04 02:26:03;;;;;;;0.95;0.25;;;21.30;37.00;;;;;;5013436;28;20507;-78
2021/04/04 02:28:30;;;;;;;0.95;0.20;;;21.30;37.60;;;;;;5028085;28;20021;-78
2021/04/04 02:30:56;;;;;;;1.75;0.30;;;21.30;37.00;;;;;;5028540;28;20017;-78
2021/04/04 02:33:40;;;;;;;0.65;0.10;;;21.30;37.10;;;;;;5028990;28;20026;-78
2021/04/04 02:36:09;;;;;;;0.90;0.35;;;21.30;37.00;;;;;;5029103;28;20235;-78
2021/04/04 02:38:39;;;;;;;1.50;0.35;;;21.20;37.60;;;;;;5028212;28;20032;-78
2021/04/04 02:41:07;;;;;;;1.63;0.30;;;21.20;37.00;;;;;;5030952;28;20037;-78
2021/04/04 02:43:35;;;;;;;1.98;0.30;;;21.20;36.90;;;;;;5045623;28;20028;-78
2021/04/04 02:46:05;;;;;;;2.35;0.30;;;21.30;37.00;;;;;;5009742;28;20052;-78
2021/04/04 02:48:36;;;;;;;0.75;0.20;;;21.20;37.00;;;;;;5011657;28;20031;-78
2021/04/04 02:51:07;;;;;;;1.33;0.30;;;21.30;37.00;;;;;;5027735;28;20408;-79
2021/04/04 02:53:54;;;;;;;0.90;0.22;;;21.20;36.90;;;;;;5047506;28;20031;-79
2021/04/04 02:56:22;;;;;;;0.60;0.20;;;21.20;37.00;;;;;;5046082;28;20037;-79
2021/04/04 02:58:54;;;;;;;1.80;0.38;;;21.20;37.10;;;;;;5031406;28;20025;-79
2021/04/04 03:01:24;;;;;;;2.40;0.30;;;21.20;37.00;;;;;;5015030;28;20025;-79
2021/04/04 03:03:50;;;;;;;1.35;0.30;;;21.20;36.90;;;;;;5045431;28;20485;-79
2021/04/04 03:06:18;;;;;;;2.90;0.30;;;21.20;36.90;;;;;;5030001;28;20052;-79
2021/04/04 03:08:47;;;;;;;0.63;0.35;;;21.20;37.00;;;;;;5029979;28;20392;-78
2021/04/04 03:11:15;;;;;;;1.30;0.30;;;21.20;37.00;;;;;;5027749;28;20021;-78
2021/04/04 03:13:48;;;;;;;0.68;0.30;;;21.20;37.00;;;;;;5043050;28;20109;-79
2021/04/04 03:16:16;;;;;;;0.75;0.20;;;21.20;36.90;;;;;;5045957;28;20132;-78
2021/04/04 03:18:43;;;;;;;2.10;0.28;;;21.20;37.00;;;;;;5027760;28;20017;-78
2021/04/04 03:21:11;;;;;;;1.05;0.30;;;21.20;37.00;;;;;;5029923;28;20029;-78
2021/04/04 03:23:39;;;;;;;1.92;0.20;;;21.20;37.00;;;;;;5029850;28;20025;-79
2021/04/04 03:26:05;;;;;;;0.90;0.25;;;21.10;36.90;;;;;;5040180;28;20032;-78
2021/04/04 03:28:32;;;;;;;0.98;0.45;;;21.20;37.00;;;;;;5027982;28;20126;-79
2021/04/04 03:31:00;;;;;;;0.60;0.20;;;21.10;37.00;;;;;;5048542;28;20025;-79
2021/04/04 03:33:26;;;;;;;1.02;0.20;;;21.10;36.90;;;;;;5036123;28;20932;-78
2021/04/04 03:35:54;;;;;;;1.83;0.22;;;21.10;37.00;;;;;;5034066;28;20092;-79
2021/04/04 03:38:23;;;;;;;0.90;0.30;;;21.10;36.90;;;;;;5012595;28;20484;-79
2021/04/04 03:40:51;;;;;;;1.70;0.30;;;21.10;36.90;;;;;;5019953;28;20505;-79
2021/04/04 03:43:29;;;;;;;1.65;0.30;;;21.10;36.90;;;;;;5015556;28;20043;-78
2021/04/04 03:46:01;;;;;;;1.17;0.30;;;21.10;37.00;;;;;;5031224;28;20025;-79
2021/04/04 03:48:30;;;;;;;1.92;0.40;;;21.10;37.00;;;;;;5019779;28;20025;-79
2021/04/04 03:50:57;;;;;;;3.30;0.45;;;21.10;37.00;;;;;;5015068;28;20048;-79
2021/04/04 03:53:27;;;;;;;1.27;0.30;;;21.10;37.00;;;;;;5033714;28;20808;-79
2021/04/04 03:55:55;;;;;;;1.02;0.30;;;21.10;36.90;;;;;;5058596;28;20032;-78
2021/04/04 03:58:23;;;;;;;1.45;0.32;;;21.10;36.90;;;;;;5060418;28;20048;-79
2021/04/04 04:00:52;;;;;;;1.02;0.35;;;21.10;36.90;;;;;;5020369;28;20734;-79
2021/04/04 04:03:19;;;;;;;2.20;0.30;;;21.10;36.90;;;;;;5036797;28;20026;-79
2021/04/04 04:05:47;;;;;;;2.97;0.20;;;21.10;36.90;;;;;;5026513;28;20035;-79
2021/04/04 04:08:18;;;;;;;1.83;0.30;;;21.10;36.90;;;;;;5051369;28;20021;-79
2021/04/04 04:10:46;;;;;;;1.20;0.30;;;21.10;36.90;;;;;;5015146;28;20056;-79
2021/04/04 04:13:16;;;;;;;1.70;0.20;;;21.10;36.90;;;;;;5031625;28;20017;-79
2021/04/04 04:15:42;;;;;;;1.08;0.20;;;21.00;36.90;;;;;;5032971;28;20108;-79
2021/04/04 04:18:09;;;;;;;2.47;0.40;;;21.10;36.90;;;;;;5024738;28;20053;-79
2021/04/04 04:20:36;;;;;;;1.35;0.15;;;21.10;37.00;;;;;;5050575;28;20048;-79
2021/04/04 04:23:11;;;;;;;1.05;0.30;;;21.10;36.90;;;;;;5013288;28;20033;-79
2021/04/04 04:25:38;;;;;;;1.38;0.20;;;21.10;36.90;;;;;;5044598;28;20033;-79
2021/04/04 04:28:08;;;;;;;1.00;0.20;;;21.00;36.90;;;;;;5046814;28;20480;-79
2021/04/04 04:30:35;;;;;;;0.98;0.10;;;21.00;36.90;;;;;;5030575;28;20030;-79
2021/04/04 04:33:02;;;;;;;1.15;0.20;;;21.00;36.90;;;;;;5014054;28;20029;-79
2021/04/04 04:35:30;;;;;;;0.77;0.10;;;21.00;37.00;;;;;;5026967;28;20017;-79
2021/04/04 04:37:57;;;;;;;1.08;0.22;;;21.10;36.90;;;;;;5021476;28;20405;-79
2021/04/04 04:40:25;;;;;;;1.38;0.17;;;21.00;36.90;;;;;;5050109;28;20393;-79
2021/04/04 04:42:53;;;;;;;2.65;0.20;;;21.00;37.00;;;;;;5028745;28;20021;-79
2021/04/04 04:45:29;;;;;;;0.98;0.22;;;21.00;36.90;;;;;;5027206;28;20191;-79
2021/04/04 04:47:56;;;;;;;0.95;0.20;;;21.00;36.90;;;;;;5051454;28;20028;-79
2021/04/04 04:50:23;;;;;;;0.95;0.10;;;21.00;36.90;;;;;;5026704;28;20021;-78
2021/04/04 04:52:51;;;;;;;1.13;0.20;;;21.00;37.00;;;;;;5047343;28;20025;-79
2021/04/04 04:55:21;;;;;;;1.35;0.20;;;21.00;36.90;;;;;;5024293;28;20124;-79
2021/04/04 04:57:48;;;;;;;1.02;0.20;;;21.00;37.00;;;;;;5051426;28;20089;-79
2021/04/04 05:00:14;;;;;;;2.05;0.20;;;21.00;37.00;;;;;;5013164;28;20021;-78
2021/04/04 05:02:41;;;;;;;0.63;0.20;;;21.00;37.00;;;;;;5031589;28;20013;-79
2021/04/04 05:05:10;;;;;;;1.17;0.25;;;21.00;37.00;;;;;;5009987;28;20228;-78
2021/04/04 05:07:37;;;;;;;1.40;0.20;;;21.00;37.00;;;;;;5030242;28;20397;-79
2021/04/04 05:10:06;;;;;;;0.47;0.10;;;20.90;36.90;;;;;;5027509;28;20014;-78
2021/04/04 05:12:35;;;;;;;0.80;0.20;;;20.90;36.90;;;;;;5025944;28;20040;-78
2021/04/04 05:15:05;;;;;;;0.57;0.10;;;21.00;37.00;;;;;;5019433;28;20117;-78
2021/04/04 05:17:36;;;;;;;0.43;0.20;;;21.00;37.00;;;;;;5048287;28;20033;-78
2021/04/04 05:20:05;;;;;;;0.50;0.10;;;21.00;36.90;;;;;;5043487;28;20027;-78
2021/04/04 05:22:33;;;;;;;0.57;0.10;;;20.90;36.90;;;;;;5044503;28;20033;-78
2021/04/04 05:24:59;;;;;;;1.17;0.20;;;21.00;37.00;;;;;;5012878;28;20128;-78
2021/04/04 05:27:25;;;;;;;1.35;0.30;;;21.00;37.00;;;;;;5045747;28;20017;-78
2021/04/04 05:29:51;;;;;;;1.50;0.20;;;20.90;36.90;;;;;;5029690;28;20029;-78
2021/04/04 05:32:18;;;;;;;0.85;0.20;;;21.00;36.90;;;;;;5028383;28;20033;-78
2021/04/04 05:34:44;;;;;;;1.05;0.10;;;20.90;36.90;;;;;;5032056;28;20108;-78
2021/04/04 05:37:10;;;;;;;2.72;0.10;;;20.90;36.90;;;;;;5027573;28;20150;-77
2021/04/04 05:39:37;;;;;;;0.77;0.10;;;20.90;37.00;;;;;;5048214;28;20128;-78
2021/04/04 05:42:11;;;;;;;0.82;0.22;;;20.90;36.90;;;;;;5045245;28;20083;-78
2021/04/04 05:44:40;;;;;;;1.13;0.10;;;20.90;36.90;;;;;;5046937;28;20040;-78
2021/04/04 05:47:46;;;;;;;1.75;0.20;;;20.90;37.40;;;;;;5024984;28;20018;-78
2021/04/04 05:50:22;;;;;;;1.50;0.30;;;20.90;36.90;;;;;;5009808;28;20030;-78
2021/04/04 05:53:09;;;;;;;0.70;0.20;;;20.90;36.90;;;;;;5027037;28;20091;-78
2021/04/04 05:55:51;;;;;;;0.77;0.17;;;20.90;36.90;;;;;;5026616;28;20036;-78
2021/04/04 05:58:31;;;;;;;1.48;0.20;;;20.90;37.00;;;;;;5027307;28;20491;-79
2021/04/04 06:01:07;;;;;;;1.98;0.10;;;20.90;36.90;;;;;;5023314;28;20055;-78
2021/04/04 06:03:47;;;;;;;0.90;0.20;;;20.90;36.90;;;;;;5031278;28;20116;-80
2021/04/04 06:06:37;;;;;;;0.73;0.30;;;20.90;36.90;;;;;;5027666;28;20108;-78
2021/04/04 06:09:28;;;;;;;0.47;0.10;;;20.90;37.00;;;;;;5029973;28;20026;-78
2021/04/04 06:12:00;;;;;;;0.80;0.20;;;20.90;36.90;;;;;;5015684;28;20017;-76
2021/04/04 06:14:33;;;;;;;0.70;0.10;;;20.90;36.90;;;;;;5044924;28;20515;-80
2021/04/04 06:17:35;;;;;;;1.45;0.20;;;20.90;36.90;;;;;;5036374;28;20060;-80
2021/04/04 06:20:23;;;;;;;0.75;0.10;;;20.90;36.90;;;;;;5047417;28;20025;-78
2021/04/04 06:23:04;;;;;;;0.43;0.10;;;20.90;36.90;;;;;;5030487;28;20021;-77
2021/04/04 06:25:42;;;;;;;0.67;0.10;;;20.90;36.90;;;;;;5029609;28;20497;-78
2021/04/04 06:28:40;;;;;;;3.25;0.40;;;20.90;37.00;;;;;;5043705;28;20026;-78
2021/04/04 06:31:24;;;;;;;1.38;0.28;;;20.90;37.10;;;;;;5040851;28;20351;-78
2021/04/04 06:34:32;;;;;;;1.10;0.10;;;20.90;37.20;;;;;;5022119;28;20032;-77
2021/04/04 06:37:26;;;;;;;1.27;0.10;;;20.90;37.20;;;;;;4953958;28;20056;-77
2021/04/04 06:40:14;;;;;;;0.85;0.30;;;20.90;37.30;;;;;;5028605;28;20032;-78
2021/04/04 06:43:20;;;;;;;1.20;0.20;;;20.90;37.30;;;;;;5017445;28;20573;-79
2021/04/04 06:46:03;;;;;;;1.52;0.22;;;20.90;37.20;;;;;;4962330;28;20023;-78
2021/04/04 06:49:06;;;;;;;2.53;0.20;;;20.90;37.20;;;;;;4956262;28;20117;-78
2021/04/04 06:51:54;;;;;;;2.10;0.22;;;20.90;37.20;;;;;;5034945;28;20068;-79
2021/04/04 06:54:41;;;;;;;2.08;0.10;;;20.90;37.20;;;;;;5047016;28;20031;-79
2021/04/04 06:57:13;;;;;;;1.85;0.20;;;20.80;37.10;;;;;;5047773;28;20580;-78
2021/04/04 06:59:43;;;;;;;0.85;0.15;;;20.90;37.10;;;;;;5032123;28;20111;-78
2021/04/04 07:02:11;;;;;;;1.33;0.43;;;20.90;37.10;;;;;;5047512;28;20025;-78
2021/04/04 07:04:45;;;;;;;3.30;0.20;;;20.90;37.00;;;;;;5027773;28;20212;-78
2021/04/04 07:07:35;;;;;;;1.60;0.30;;;20.80;36.90;;;;;;5047997;28;20018;-78
2021/04/04 07:10:34;;;;;;;1.58;0.20;;;20.80;36.90;;;;;;5032973;28;20452;-79
2021/04/04 07:13:18;;;;;;;1.73;0.13;;;20.80;36.90;;;;;;4990623;28;20029;-79
2021/04/04 07:16:09;;;;;;;0.93;0.30;;;20.90;36.90;;;;;;5032407;28;20056;-79
2021/04/04 07:18:47;;;;;;;0.82;0.30;;;20.80;36.80;;;;;;5027719;28;20397;-78
2021/04/04 07:21:32;;;;;;;1.00;0.20;;;20.80;36.90;;;;;;5042791;28;20045;-78
2021/04/04 07:24:14;;;;;;;2.67;0.30;;;20.80;36.80;;;;;;5035016;28;20044;-79
2021/04/04 07:27:01;;;;;;;2.15;0.28;;;20.80;36.80;;;;;;5049745;28;20494;-79
2021/04/04 07:29:51;;;;;;;3.70;0.50;;;20.80;36.80;;;;;;5049454;28;20108;-79
2021/04/04 07:32:27;;;;;;;1.27;0.30;;;20.80;36.70;;;;;;5033232;28;20040;-79
2021/04/04 07:35:03;;;;;;;1.15;0.22;;;20.80;36.70;;;;;;5026858;28;20516;-79
2021/04/04 07:37:39;;;;;;;1.52;0.10;;;20.80;37.30;;;;;;5029882;28;20025;-78
2021/04/04 07:40:22;;;;;;;2.33;0.28;;;20.80;36.80;;;;;;5047506;28;20025;-79
2021/04/04 07:42:58;;;;;;;2.55;0.40;;;20.80;36.70;;;;;;5030165;28;20033;-78
2021/04/04 07:45:36;;;;;;;1.35;0.20;;;20.80;36.80;;;;;;5051146;28;20049;-79
2021/04/04 07:48:05;;;;;;;3.35;0.25;;;20.80;36.60;;;;;;5019423;28;20021;-79
2021/04/04 07:50:43;;;;;;;2.65;0.28;;;20.80;36.60;;;;;;5036040;28;20035;-79
2021/04/04 07:53:11;;;;;;;1.52;0.22;;;20.80;36.60;;;;;;5028647;28;20017;-79
2021/04/04 07:56:14;;;;;;;2.35;0.17;;;20.80;36.70;;;;;;5019476;28;20068;-78
2021/04/04 07:58:48;;;;;;;;;;;20.80;36.60;;;;;;5029578;28;20074;-78
2021/04/04 08:01:18;;;;;;;1.08;0.30;;;20.80;36.60;;;;;;5032900;28;19912;-78
2021/04/04 08:04:13;;;;;;;0.90;0.30;;;20.80;36.60;;;;;;5027315;28;20025;-78
2021/04/04 08:06:43;;;;;;;1.73;0.47;;;20.80;36.50;;;;;;5046753;28;20087;-78
2021/04/04 08:09:53;;;;;;;0.95;0.20;;;20.80;36.50;;;;;;5034426;28;20053;-83
2021/04/04 08:12:38;;;;;;;1.45;0.20;;;20.80;36.60;;;;;;5008847;28;20033;-81
2021/04/04 08:15:16;;;;;;;1.92;0.43;;;20.80;36.60;;;;;;5045701;28;20018;-78
2021/04/04 08:17:42;;;;;;;3.25;0.30;;;20.80;36.60;;;;;;5044513;28;20046;-79
2021/04/04 08:20:31;;;;;;;1.65;0.30;;;20.80;36.70;;;;;;5045590;28;20103;-78
2021/04/04 08:23:04;;;;;;;2.05;0.20;;;20.80;36.60;;;;;;5047618;28;20020;-79
2021/04/04 08:25:52;;;;;;;1.33;0.20;;;20.80;36.40;;;;;;5028374;28;20029;-79
2021/04/04 08:28:31;;;;;;;1.33;0.40;;;20.80;36.50;;;;;;5030369;28;20029;-78
2021/04/04 08:31:11;;;;;;;0.77;0.30;;;20.80;36.60;;;;;;5011187;28;20181;-79
2021/04/04 08:33:45;;;;;;;0.70;0.20;;;20.80;36.40;;;;;;5022891;28;20501;-77
2021/04/04 08:36:16;;;;;;;0.65;0.10;;;20.80;36.60;;;;;;5013370;28;20021;-78
2021/04/04 08:38:45;;;;;;;2.63;0.20;;;20.80;36.50;;;;;;5006457;28;20060;-78
2021/04/04 08:41:14;;;;;;;2.13;0.43;;;20.80;36.50;;;;;;5030186;28;20082;-78
2021/04/04 08:43:56;;;;;;;0.88;0.20;;;20.80;36.50;;;;;;5031894;28;20035;-78
2021/04/04 08:46:53;;;;;;;2.65;0.47;;;20.80;36.50;;;;;;5044076;28;20018;-77
2021/04/04 08:49:21;;;;;;;1.98;0.30;;;20.80;36.60;;;;;;5021871;28;20029;-79
2021/04/04 08:51:59;;;;;;;2.63;0.40;;;20.80;36.50;;;;;;5043205;28;20104;-78
2021/04/04 08:54:27;;;;;;;1.30;0.35;;;20.80;36.40;;;;;;5028752;28;20106;-79
2021/04/04 08:56:56;;;;;;;2.33;1.02;;;20.80;36.50;;;;;;5047499;28;20025;-79
2021/04/04 08:59:31;;;;;;;1.25;0.38;;;20.80;36.50;;;;;;5042098;28;20091;-78
2021/04/04 09:02:04;;;;;;;1.35;0.40;;;20.80;36.50;;;;;;5045233;28;20018;-78
2021/04/04 09:04:32;;;;;;;1.30;0.45;;;20.70;36.40;;;;;;5026835;28;20105;-78
2021/04/04 09:07:09;;;;;;;2.70;0.60;;;20.70;36.40;;;;;;5028523;28;20017;-81
2021/04/04 09:09:44;;;;;;;4.47;0.57;;;20.80;36.40;;;;;;5014250;28;20028;-80
2021/04/04 09:12:10;;;;;;;0.90;0.50;;;20.80;36.40;;;;;;5010870;28;20021;-80
2021/04/04 09:14:38;;;;;;;1.33;0.30;;;20.70;36.40;;;;;;5027939;28;20029;-80
2021/04/04 09:17:14;;;;;;;1.85;0.50;;;20.70;36.40;;;;;;5050375;28;20012;-82
2021/04/04 09:19:42;;;;;;;2.83;0.70;;;20.70;36.40;;;;;;5028911;28;20057;-82
2021/04/04 09:22:17;;;;;;;2.85;0.52;;;20.70;36.40;;;;;;5049701;28;20021;-83
2021/04/04 09:24:54;;;;;;;1.98;0.57;;;20.80;36.40;;;;;;5045548;28;20021;-83
2021/04/04 09:27:25;;;;;;;3.78;0.32;;;20.70;36.50;;;;;;5027783;28;20017;-82
2021/04/04 09:29:57;;;;;;;2.13;0.70;;;20.70;36.40;;;;;;5047626;28;20018;-81
2021/04/04 09:32:38;;;;;;;3.83;0.68;;;20.70;36.50;;;;;;5027575;28;20163;-82
2021/04/04 09:35:06;;;;;;;2.28;0.40;;;20.70;36.50;;;;;;5028860;28;20022;-81
2021/04/04 09:37:34;;;;;;;2.90;0.98;;;20.70;36.50;;;;;;5030449;28;20033;-82
2021/04/04 09:40:00;;;;;;;2.22;0.50;;;20.70;36.50;;;;;;5013309;28;20112;-83
2021/04/04 09:42:31;;;;;;;2.00;0.70;;;20.70;36.50;;;;;;5054637;28;20045;-82
2021/04/04 09:45:15;;;;;;;2.95;0.60;;;20.70;36.50;;;;;;5060674;28;20270;-81
2021/04/04 09:47:42;;;;;;;2.38;0.40;;;20.80;36.60;;;;;;5042789;28;20017;-82
2021/04/04 09:50:19;;;;;;;1.38;0.50;;;20.70;36.60;;;;;;5035098;28;20033;-81
2021/04/04 09:52:45;;;;;;;1.10;0.38;;;20.70;36.50;;;;;;5044381;28;20424;-81
2021/04/04 09:55:14;;;;;;;1.67;0.50;;;20.70;36.50;;;;;;5013107;28;20028;-81
2021/04/04 09:57:43;;;;;;;3.58;0.70;;;20.70;36.50;;;;;;5029398;28;20021;-81
2021/04/04 10:00:28;;;;;;;1.30;0.52;;;20.70;36.60;;;;;;5013611;28;20031;-81
2021/04/04 10:02:56;;;;;;;2.97;0.40;;;20.70;36.60;;;;;;5026858;28;20021;-79
2021/04/04 10:05:37;;;;;;;0.82;0.30;;;20.70;36.50;;;;;;5027621;28;20024;-79
2021/04/04 10:08:10;;;;;;;1.77;0.52;;;20.70;36.60;;;;;;5011148;28;20172;-80
2021/04/04 10:10:38;;;;;;;1.95;0.30;;;20.70;36.60;;;;;;5025416;28;20041;-79
2021/04/04 10:13:05;;;;;;;0.77;0.40;;;20.70;36.60;;;;;;5022063;28;20051;-80
2021/04/04 10:15:48;;;;;;;1.80;0.50;;;20.70;36.60;;;;;;5046369;28;20477;-80
2021/04/04 10:18:15;;;;;;;3.15;0.65;;;20.70;36.60;;;;;;5045728;28;20036;-78
2021/04/04 10:20:42;;;;;;;1.45;0.32;;;20.70;36.60;;;;;;5035916;28;20029;-79
2021/04/04 10:23:09;;;;;;;2.15;0.40;;;20.70;36.70;;;;;;5051026;28;20064;-79
2021/04/04 10:25:37;;;;;;;2.20;0.60;;;20.70;36.70;;;;;;5030803;28;20056;-79
2021/04/04 10:28:08;;;;;;;1.00;0.30;;;20.70;36.70;;;;;;5031121;28;20542;-79
2021/04/04 10:30:39;;;;;;;2.00;0.30;;;20.70;36.70;;;;;;5026963;28;20045;-79
2021/04/04 10:33:24;;;;;;;2.70;0.60;;;20.70;36.70;;;;;;5013271;28;20030;-79
2021/04/04 10:35:52;;;;;;;2.53;0.60;;;20.70;37.20;;;;;;5034410;28;20037;-79
2021/04/04 10:38:21;;;;;;;2.47;0.50;;;20.70;36.70;;;;;;5030940;28;20068;-79
2021/04/04 10:40:54;;;;;;;1.10;0.50;;;20.70;36.70;;;;;;5029918;28;20021;-79
2021/04/04 10:43:40;;;;;;;1.50;0.40;;;20.70;36.70;;;;;;5032255;28;20025;-78
2021/04/04 10:46:09;;;;;;;1.15;0.50;;;20.70;36.70;;;;;;5029099;28;20021;-78
2021/04/04 10:48:46;;;;;;;1.23;0.43;;;20.70;36.70;;;;;;5054811;28;20135;-79
2021/04/04 10:51:14;;;;;;;1.30;0.40;;;20.70;36.70;;;;;;5029920;28;20622;-79
2021/04/04 10:53:42;;;;;;;1.20;0.30;;;20.70;36.70;;;;;;5037826;28;20025;-79
2021/04/04 10:56:10;;;;;;;0.70;0.32;;;20.70;36.70;;;;;;5033127;28;20029;-79
2021/04/04 10:58:37;;;;;;;3.08;0.60;;;20.70;36.80;;;;;;5025053;28;20040;-79
2021/04/04 11:01:05;;;;;;;1.05;0.32;;;20.70;36.80;;;;;;5032025;28;20032;-79
2021/04/04 11:03:32;;;;;;;1.33;0.50;;;20.70;36.80;;;;;;5026945;28;20093;-79
2021/04/04 11:05:59;;;;;;;0.70;0.20;;;20.70;36.70;;;;;;5047143;28;20031;-78
2021/04/04 11:08:25;;;;;;;1.00;0.20;;;20.70;36.80;;;;;;5033191;28;20051;-79
2021/04/04 11:10:53;;;;;;;1.10;0.43;;;20.70;36.80;;;;;;5032708;28;20037;-79
2021/04/04 11:13:21;;;;;;;1.20;0.30;;;20.70;36.80;;;;;;5033453;28;20036;-79
2021/04/04 11:15:57;;;;;;;2.05;0.30;;;20.70;36.80;;;;;;5036345;28;20040;-79
2021/04/04 11:18:33;;;;;;;0.70;0.20;;;20.70;36.70;;;;;;5038686;28;20108;-79
2021/04/04 11:21:04;;;;;;;0.93;0.20;;;20.70;36.70;;;;;;5022585;28;20037;-80
2021/04/04 11:23:31;;;;;;;1.00;0.30;;;20.70;36.70;;;;;;5053508;28;20036;-79
2021/04/04 11:25:57;;;;;;;1.00;0.30;;;20.70;36.70;;;;;;5037399;28;20044;-79
2021/04/04 11:28:26;;;;;;;1.25;0.35;;;20.70;36.70;;;;;;5041181;28;20043;-79
2021/04/04 11:30:54;;;;;;;0.80;0.20;;;20.70;36.70;;;;;;5031883;28;20040;-79
2021/04/04 11:33:23;;;;;;;1.50;0.40;;;20.70;36.70;;;;;;5020787;28;20032;-79
2021/04/04 11:36:03;;;;;;;1.05;0.20;;;20.70;36.70;;;;;;5034266;28;20028;-79
2021/04/04 11:38:32;;;;;;;1.30;0.40;;;20.70;36.70;;;;;;5049689;28;20083;-79
2021/04/04 11:41:08;;;;;;;0.90;0.30;;;20.70;36.70;;;;;;5055902;28;20028;-79
2021/04/04 11:43:34;;;;;;;0.80;0.30;;;20.70;36.70;;;;;;5031717;28;20119;-80
2021/04/04 11:46:00;;;;;;;1.08;0.35;;;20.70;36.60;;;;;;5033515;28;20048;-79
2021/04/04 11:48:33;;;;;;;1.27;0.30;;;20.70;36.60;;;;;;5030583;28;20097;-79
2021/04/04 11:51:11;;;;;;;1.52;0.20;;;20.60;36.60;;;;;;5033353;28;20480;-80
2021/04/04 11:53:41;;;;;;;0.60;0.20;;;20.70;36.70;;;;;;5015264;28;20123;-79
2021/04/04 11:56:08;;;;;;;1.60;0.52;;;20.70;36.60;;;;;;5032084;28;20115;-79
2021/04/04 11:58:35;;;;;;;1.40;0.50;;;20.70;36.60;;;;;;5051167;28;20435;-80
2021/04/04 12:01:01;;;;;;;2.03;0.32;;;20.70;36.60;;;;;;5034822;28;20057;-79
2021/04/04 12:03:27;;;;;;;1.80;0.22;;;20.70;36.60;;;;;;5030462;28;20081;-79
2021/04/04 12:05:54;;;;;;;1.45;0.30;;;20.70;36.70;;;;;;5047862;28;20496;-79
2021/04/04 12:08:28;;;;;;;0.85;0.50;;;20.70;36.70;;;;;;5031243;28;20499;-80
2021/04/04 12:10:55;;;;;;;1.83;0.40;;;20.70;36.70;;;;;;5032736;28;20029;-79
2021/04/04 12:13:21;;;;;;;2.50;0.30;;;20.70;36.70;;;;;;5034936;28;20029;-79
2021/04/04 12:15:47;;;;;;;0.95;0.30;;;20.70;36.70;;;;;;5014905;28;20032;-79
2021/04/04 12:18:13;;;;;;;1.25;0.20;;;20.70;36.70;;;;;;5033692;28;20504;-79
2021/04/04 12:20:40;;;;;;;1.63;0.50;;;20.70;36.70;;;;;;5031112;28;20089;-79
2021/04/04 12:23:11;;;;;;;1.95;0.55;;;20.70;36.70;;;;;;5029227;28;20040;-79
2021/04/04 12:25:37;;;;;;;2.30;0.50;;;20.70;36.70;;;;;;5016972;28;20123;-79
2021/04/04 12:28:03;;;;;;;1.23;0.30;;;20.70;36.70;;;;;;5033595;28;20057;-80
2021/04/04 12:30:33;;;;;;;2.75;0.70;;;20.70;36.80;;;;;;5032291;28;20017;-79
2021/04/04 12:33:10;;;;;;;1.63;0.40;;;20.70;36.70;;;;;;5031230;28;20025;-79
2021/04/04 12:35:41;;;;;;;1.95;0.40;;;20.70;36.80;;;;;;5016065;28;20037;-79
2021/04/04 12:38:08;;;;;;;2.85;0.68;;;20.70;36.80;;;;;;5050676;28;20021;-80
2021/04/04 12:40:35;;;;;;;5.43;0.80;;;20.70;36.80;;;;;;5030103;28;20045;-79
2021/04/04 12:43:04;;;;;;;2.58;0.68;;;20.70;36.80;;;;;;5030770;28;20020;-80
2021/04/04 12:45:36;;;;;;;2.35;0.60;;;20.70;36.80;;;;;;5035502;28;20027;-79
2021/04/04 12:48:10;;;;;;;3.97;0.70;;;20.70;36.90;;;;;;5021982;28;20014;-79
2021/04/04 12:50:36;;;;;;;4.60;1.08;;;20.70;36.90;;;;;;5018622;28;20045;-79
2021/04/04 12:53:02;;;;;;;4.20;0.70;;;20.70;36.90;;;;;;5032519;28;20043;-79
2021/04/04 12:55:30;;;;;;;3.30;0.90;;;20.70;36.90;;;;;;5031337;28;20276;-79
2021/04/04 12:58:07;;;;;;;3.92;1.30;;;20.70;36.90;;;;;;5032618;28;20222;-80
2021/04/04 13:00:33;;;;;;;4.35;0.93;;;20.70;36.90;;;;;;5017232;28;20033;-80
2021/04/04 13:03:08;;;;;;;4.80;1.02;;;20.80;36.90;;;;;;5014582;28;20029;-79
2021/04/04 13:05:40;;;;;;;4.40;0.60;;;20.80;36.90;;;;;;5031368;28;20036;-80
2021/04/04 13:08:11;;;;;;;3.53;1.08;;;20.80;36.90;;;;;;5016047;28;20365;-79
2021/04/04 13:10:37;;;;;;;4.38;1.25;;;20.70;36.90;;;;;;5032614;28;20032;-79
2021/04/04 13:13:26;;;;;;;2.92;0.93;;;20.70;37.20;;;;;;5017762;28;20021;-79
2021/04/04 13:15:59;;;;;;;5.15;0.88;;;20.70;36.90;;;;;;5031987;28;20028;-80